Time;durP1;ratioP1;P1;durP2;ratioP2;P2;SDS_P1;SDS_P2;PMS_P1;PMS_P2;Temp;Humidity;BMP_temperature;BMP_pressure;BME280_temperature;BME280_humidity;BME280_pressure;Samples;Min_cycle;Max_cycle;Signal;HPM_P1;HPM_P2
2023/05/27 00:00:10;;;;;;;30.60;20.60;;;6.30;99.90;;;;;;4982243;28;20038;-70
2023/05/27 00:02:38;;;;;;;27.42;20.83;;;6.30;99.90;;;;;;4966151;28;20133;-71
2023/05/27 00:05:05;;;;;;;28.10;22.00;;;6.20;99.90;;;;;;4969546;28;20168;-71
2023/05/27 00:07:32;;;;;;;33.13;23.00;;;6.40;99.90;;;;;;4981800;28;20308;-70
2023/05/27 00:09:59;;;;;;;32.80;20.25;;;6.50;99.90;;;;;;4974476;28;20035;-72
2023/05/27 00:12:26;;;;;;;25.73;21.42;;;6.80;99.90;;;;;;4962913;28;20534;-71
2023/05/27 00:14:53;;;;;;;32.88;21.35;;;6.80;99.90;;;;;;4968018;28;20046;-70
2023/05/27 00:17:20;;;;;;;30.15;21.10;;;6.70;99.90;;;;;;4967813;28;20049;-72
2023/05/27 00:19:48;;;;;;;31.13;21.30;;;6.60;99.90;;;;;;4968596;28;20042;-73
2023/05/27 00:22:15;;;;;;;24.10;19.65;;;6.50;99.90;;;;;;4968171;28;21216;-71
2023/05/27 00:24:42;;;;;;;25.33;22.60;;;6.50;99.90;;;;;;4967622;28;20325;-72
2023/05/27 00:27:10;;;;;;;30.17;21.33;;;6.50;99.90;;;;;;4966794;28;20588;-71
2023/05/27 00:29:37;;;;;;;38.42;21.08;;;6.60;99.90;;;;;;4967376;28;20053;-72
2023/05/27 00:32:04;;;;;;;34.33;21.98;;;6.80;99.90;;;;;;4973433;28;20284;-72
2023/05/27 00:34:32;;;;;;;38.15;20.80;;;6.60;99.90;;;;;;4953821;28;20026;-71
2023/05/27 00:36:59;;;;;;;34.35;20.98;;;6.60;99.90;;;;;;4964393;28;20044;-71
2023/05/27 00:39:27;;;;;;;30.75;22.08;;;6.50;99.90;;;;;;4973569;28;20061;-70
2023/05/27 00:41:54;;;;;;;32.65;22.50;;;6.50;99.90;;;;;;4964361;28;20050;-71
2023/05/27 00:44:21;;;;;;;38.10;22.40;;;6.50;99.90;;;;;;4968697;28;20103;-70
2023/05/27 00:46:48;;;;;;;30.70;22.27;;;6.50;99.90;;;;;;4963566;28;20042;-70
2023/05/27 00:49:16;;;;;;;34.90;22.95;;;6.50;99.90;;;;;;4968573;28;20046;-71
2023/05/27 00:51:44;;;;;;;33.88;21.48;;;6.50;99.90;;;;;;4972351;28;20038;-71
2023/05/27 00:54:11;;;;;;;36.33;22.13;;;6.40;99.90;;;;;;4969102;28;20038;-71
2023/05/27 00:56:38;;;;;;;47.05;23.08;;;6.40;99.90;;;;;;4968020;28;20061;-72
2023/05/27 00:59:05;;;;;;;40.00;23.60;;;6.50;99.90;;;;;;4972193;28;20050;-72
2023/05/27 01:01:36;;;;;;;42.67;22.30;;;6.70;99.90;;;;;;4967730;28;20053;-71
2023/05/27 01:04:03;;;;;;;34.30;20.63;;;6.90;99.90;;;;;;4964877;28;20053;-72
2023/05/27 01:06:55;;;;;;;36.65;21.10;;;6.90;99.90;;;;;;4960228;28;20169;-70
2023/05/27 01:09:39;;;;;;;36.53;20.20;;;6.90;99.90;;;;;;4967718;28;20566;-72
2023/05/27 01:12:29;;;;;;;36.03;21.10;;;6.90;99.90;;;;;;4965631;28;20434;-73
2023/05/27 01:14:57;;;;;;;33.47;20.05;;;7.10;99.90;;;;;;4951460;28;20103;-71
2023/05/27 01:17:26;;;;;;;38.60;19.80;;;6.90;99.90;;;;;;4960851;28;20050;-70
2023/05/27 01:19:55;;;;;;;33.70;20.05;;;6.90;99.90;;;;;;4984525;28;20337;-71
2023/05/27 01:22:28;;;;;;;32.33;20.38;;;6.80;99.90;;;;;;4971152;28;20042;-72
2023/05/27 01:24:55;;;;;;;32.90;20.52;;;6.80;99.90;;;;;;4971632;28;20061;-72
2023/05/27 01:27:26;;;;;;;29.90;19.02;;;6.90;99.90;;;;;;4969232;28;20053;-72
2023/05/27 01:29:53;;;;;;;39.00;19.60;;;7.00;99.90;;;;;;4971337;28;20034;-71
2023/05/27 01:32:45;;;;;;;35.25;19.30;;;7.10;99.90;;;;;;4965867;28;20062;-72
2023/05/27 01:35:27;;;;;;;32.70;19.67;;;7.20;99.90;;;;;;4974590;28;20285;-71
2023/05/27 01:37:56;;;;;;;37.05;19.95;;;7.00;99.90;;;;;;4965112;28;20489;-71
2023/05/27 01:40:26;;;;;;;33.30;19.92;;;6.90;99.90;;;;;;4964068;28;20050;-70
2023/05/27 01:42:53;;;;;;;39.42;20.33;;;7.10;99.90;;;;;;4960848;28;20588;-71
2023/05/27 01:45:21;;;;;;;29.13;19.40;;;7.10;99.90;;;;;;4967943;28;20289;-70
2023/05/27 01:47:47;;;;;;;31.98;20.60;;;6.90;99.90;;;;;;4962653;28;20465;-71
2023/05/27 01:50:14;;;;;;;30.83;21.02;;;6.90;99.90;;;;;;4956305;28;20046;-71
2023/05/27 01:52:42;;;;;;;40.10;22.00;;;7.00;99.90;;;;;;4967725;28;20426;-71
2023/05/27 01:55:11;;;;;;;32.40;21.15;;;7.10;99.90;;;;;;4973721;28;20042;-70
2023/05/27 01:57:38;;;;;;;40.35;22.77;;;7.20;99.90;;;;;;4966875;28;20057;-72
2023/05/27 02:00:09;;;;;;;32.13;21.88;;;7.20;99.90;;;;;;4970551;28;20039;-72
2023/05/27 02:02:42;;;;;;;39.67;22.80;;;7.20;99.90;;;;;;4962936;28;20046;-71
2023/05/27 02:05:12;;;;;;;39.28;21.48;;;7.10;99.90;;;;;;4966696;28;20369;-72
2023/05/27 02:07:39;;;;;;;40.45;23.02;;;7.20;99.90;;;;;;4959908;28;20053;-71
2023/05/27 02:10:07;;;;;;;31.60;21.02;;;7.10;99.90;;;;;;4981048;28;20038;-71
2023/05/27 02:12:33;;;;;;;37.70;21.15;;;7.20;99.90;;;;;;4975758;28;20038;-71
2023/05/27 02:15:00;;;;;;;38.97;22.48;;;7.10;99.90;;;;;;4968614;28;20045;-71
2023/05/27 02:17:27;;;;;;;46.17;22.15;;;7.10;99.90;;;;;;4965269;28;20042;-72
2023/05/27 02:19:55;;;;;;;34.33;22.05;;;7.10;99.90;;;;;;4980928;28;20045;-72
2023/05/27 02:22:22;;;;;;;38.83;23.63;;;7.00;99.90;;;;;;4971257;28;20030;-72
2023/05/27 02:24:50;;;;;;;44.88;24.95;;;7.00;99.90;;;;;;4975796;28;20056;-71
2023/05/27 02:27:17;;;;;;;38.90;23.60;;;7.00;99.90;;;;;;4971825;28;20778;-72
2023/05/27 02:29:44;;;;;;;42.03;23.45;;;6.90;99.90;;;;;;4969543;28;20546;-72
2023/05/27 02:32:11;;;;;;;40.13;23.85;;;6.90;99.90;;;;;;4980362;28;20100;-71
2023/05/27 02:34:41;;;;;;;33.50;24.50;;;6.90;99.90;;;;;;4967096;28;20047;-72
2023/05/27 02:37:08;;;;;;;36.25;22.65;;;6.80;99.90;;;;;;4962057;28;20035;-72
2023/05/27 02:39:35;;;;;;;38.08;24.02;;;6.70;99.90;;;;;;4951544;28;20180;-73
2023/05/27 02:42:02;;;;;;;43.15;23.27;;;6.60;99.90;;;;;;4968418;28;20145;-73
2023/05/27 02:44:29;;;;;;;34.80;23.38;;;6.50;99.90;;;;;;4972341;28;20045;-72
2023/05/27 02:46:56;;;;;;;46.55;26.00;;;6.40;99.90;;;;;;4968578;28;20070;-71
2023/05/27 02:49:23;;;;;;;38.50;25.35;;;6.30;99.90;;;;;;4978044;28;20079;-72
2023/05/27 02:51:51;;;;;;;47.13;25.17;;;6.20;99.90;;;;;;4978636;28;20113;-72
2023/05/27 02:54:17;;;;;;;42.28;26.27;;;6.30;99.90;;;;;;4976256;28;20366;-71
2023/05/27 02:56:44;;;;;;;37.25;25.20;;;6.30;99.90;;;;;;4973566;28;20750;-71
2023/05/27 02:59:14;;;;;;;36.90;26.52;;;6.20;99.90;;;;;;4978925;28;21774;-72
2023/05/27 03:01:41;;;;;;;53.08;26.35;;;6.20;99.90;;;;;;4973351;28;20039;-72
2023/05/27 03:04:08;;;;;;;46.58;28.38;;;6.20;99.90;;;;;;4988352;28;20114;-71
2023/05/27 03:06:35;;;;;;;47.33;27.70;;;6.30;99.90;;;;;;4979012;28;20042;-72
2023/05/27 03:09:03;;;;;;;44.88;27.05;;;6.20;99.90;;;;;;4972058;28;20137;-72
2023/05/27 03:11:30;;;;;;;53.45;28.92;;;6.10;99.90;;;;;;4972220;28;20056;-72
2023/05/27 03:13:57;;;;;;;47.45;28.50;;;6.10;99.90;;;;;;4979341;28;20049;-71
2023/05/27 03:16:25;;;;;;;42.38;29.13;;;6.10;99.90;;;;;;4972666;28;20045;-71
2023/05/27 03:18:51;;;;;;;50.55;29.65;;;6.10;99.90;;;;;;4975729;28;20152;-72
2023/05/27 03:21:18;;;;;;;49.00;29.13;;;6.20;99.90;;;;;;4975351;28;20048;-73
2023/05/27 03:23:46;;;;;;;48.33;26.98;;;6.30;99.90;;;;;;4991572;28;20068;-73
2023/05/27 03:26:12;;;;;;;46.78;27.88;;;6.20;99.90;;;;;;4970187;28;20407;-71
2023/05/27 03:28:39;;;;;;;54.80;27.83;;;6.20;99.90;;;;;;4977420;28;20494;-70
2023/05/27 03:31:08;;;;;;;55.20;27.65;;;6.70;99.90;;;;;;4974398;28;20065;-72
2023/05/27 03:33:50;;;;;;;48.05;27.92;;;6.70;99.90;;;;;;4986070;28;20399;-73
2023/05/27 03:36:17;;;;;;;55.67;27.20;;;6.60;99.90;;;;;;4996019;28;20848;-70
2023/05/27 03:38:44;;;;;;;59.35;28.00;;;6.70;99.90;;;;;;4967830;28;20137;-71
2023/05/27 03:41:11;;;;;;;44.38;25.98;;;6.80;99.90;;;;;;4979157;28;20046;-71
2023/05/27 03:43:38;;;;;;;51.13;26.73;;;6.90;99.90;;;;;;4970270;28;20064;-71
2023/05/27 03:46:06;;;;;;;54.92;27.48;;;7.00;99.90;;;;;;4969633;28;20462;-72
2023/05/27 03:48:33;;;;;;;44.85;26.00;;;7.00;99.90;;;;;;4973459;28;20180;-73
2023/05/27 03:51:00;;;;;;;44.83;26.88;;;6.80;99.90;;;;;;4984347;28;20048;-72
2023/05/27 03:53:26;;;;;;;37.38;25.98;;;6.80;99.90;;;;;;4973480;28;20038;-71
2023/05/27 03:55:53;;;;;;;39.65;27.48;;;6.80;99.90;;;;;;4979043;28;20453;-73
2023/05/27 03:58:20;;;;;;;45.40;27.33;;;6.80;99.90;;;;;;4976339;28;20041;-73
2023/05/27 04:00:47;;;;;;;50.13;28.08;;;6.80;99.90;;;;;;4966905;28;20429;-71
2023/05/27 04:03:15;;;;;;;46.47;26.48;;;6.70;99.90;;;;;;4958124;28;20052;-72
2023/05/27 04:05:42;;;;;;;46.80;27.40;;;6.70;99.90;;;;;;4971817;28;20088;-73
2023/05/27 04:08:09;;;;;;;46.58;26.38;;;6.70;99.90;;;;;;4963487;28;20112;-71
2023/05/27 04:10:36;;;;;;;58.00;29.65;;;6.80;99.90;;;;;;4974144;28;20342;-71
2023/05/27 04:13:03;;;;;;;43.50;28.48;;;6.80;99.90;;;;;;4963552;28;20561;-72
2023/05/27 04:15:29;;;;;;;46.60;27.45;;;6.80;99.90;;;;;;4966490;28;20046;-71
2023/05/27 04:17:57;;;;;;;51.88;28.73;;;6.80;99.90;;;;;;4965981;28;20050;-71
2023/05/27 04:20:24;;;;;;;59.50;27.48;;;6.80;99.90;;;;;;4974488;28;20426;-71
2023/05/27 04:22:56;;;;;;;55.88;28.80;;;6.90;99.90;;;;;;4985444;28;20434;-72
2023/05/27 04:25:23;;;;;;;49.58;28.60;;;6.90;99.90;;;;;;4971575;28;20088;-72
2023/05/27 04:28:04;;;;;;;50.47;29.13;;;7.00;99.90;;;;;;4985898;28;20089;-71
2023/05/27 04:30:34;;;;;;;42.65;28.83;;;7.10;99.90;;;;;;4972150;28;20191;-71
2023/05/27 04:33:03;;;;;;;52.28;28.70;;;7.20;99.90;;;;;;4968786;28;20042;-71
2023/05/27 04:35:30;;;;;;;54.75;30.63;;;7.30;99.90;;;;;;4965638;28;20057;-72
2023/05/27 04:38:01;;;;;;;46.72;28.95;;;7.50;99.90;;;;;;4983750;28;20898;-73
2023/05/27 04:40:35;;;;;;;38.97;29.23;;;7.60;99.90;;;;;;4983330;28;20077;-73
2023/05/27 04:43:19;;;;;;;54.45;29.50;;;7.70;99.90;;;;;;4962926;28;20111;-70
2023/05/27 04:45:47;;;;;;;47.10;27.83;;;7.90;99.90;;;;;;4962627;28;20042;-72
2023/05/27 04:48:15;;;;;;;42.35;28.58;;;8.10;99.90;;;;;;4969363;28;20080;-68
2023/05/27 04:50:42;;;;;;;45.75;27.08;;;8.20;99.90;;;;;;4971233;28;20053;-71
2023/05/27 04:53:09;;;;;;;37.97;24.73;;;8.30;99.90;;;;;;4966473;28;20078;-71
2023/05/27 04:55:36;;;;;;;41.00;24.00;;;8.50;99.90;;;;;;4972628;28;20073;-71
2023/05/27 04:58:05;;;;;;;35.17;23.67;;;8.60;99.90;;;;;;4969530;28;20050;-70
2023/05/27 05:00:38;;;;;;;35.38;24.05;;;8.70;99.90;;;;;;4973979;28;20044;-68
2023/05/27 05:03:06;;;;;;;39.22;22.17;;;9.10;99.90;;;;;;4954864;28;20129;-69
2023/05/27 05:05:35;;;;;;;33.83;21.70;;;9.30;99.90;;;;;;4968891;28;20046;-70
2023/05/27 05:08:04;;;;;;;30.88;21.10;;;9.70;99.90;;;;;;4974170;28;20205;-68
2023/05/27 05:10:31;;;;;;;28.58;22.63;;;9.90;99.90;;;;;;4982790;28;20042;-70
2023/05/27 05:12:58;;;;;;;38.15;24.45;;;10.30;99.90;;;;;;4969327;28;20042;-69
2023/05/27 05:15:25;;;;;;;32.75;24.75;;;10.60;99.90;;;;;;4973606;28;20050;-68
2023/05/27 05:17:54;;;;;;;38.05;27.20;;;11.10;99.90;;;;;;4969173;28;20579;-71
2023/05/27 05:20:23;;;;;;;38.30;27.40;;;11.30;99.90;;;;;;4967362;28;20941;-71
2023/05/27 05:22:50;;;;;;;31.05;27.27;;;11.50;99.90;;;;;;4981361;28;20031;-70
2023/05/27 05:25:17;;;;;;;31.52;26.67;;;11.50;99.90;;;;;;4967457;28;20362;-70
2023/05/27 05:27:49;;;;;;;36.80;26.10;;;11.00;99.90;;;;;;4967922;28;20068;-69
2023/05/27 05:30:16;;;;;;;32.58;24.52;;;10.90;99.90;;;;;;4969930;28;21328;-71
2023/05/27 05:32:43;;;;;;;34.10;26.30;;;10.60;99.90;;;;;;4967187;28;20038;-71
2023/05/27 05:35:10;;;;;;;31.23;26.30;;;10.80;99.90;;;;;;4961721;28;20101;-69
2023/05/27 05:37:41;;;;;;;28.05;24.27;;;11.00;99.90;;;;;;4978055;28;20459;-70
2023/05/27 05:40:09;;;;;;;39.30;24.85;;;10.80;99.90;;;;;;4966900;28;20050;-70
2023/05/27 05:42:42;;;;;;;28.25;24.88;;;10.70;99.90;;;;;;4980121;28;20125;-67
2023/05/27 05:45:10;;;;;;;31.17;25.33;;;10.70;99.90;;;;;;4964818;28;20141;-70
2023/05/27 05:47:39;;;;;;;33.67;26.70;;;10.90;99.90;;;;;;4965067;28;22039;-68
2023/05/27 05:50:10;;;;;;;28.35;25.33;;;10.90;99.90;;;;;;4972281;28;20042;-69
2023/05/27 05:52:38;;;;;;;30.25;26.23;;;10.90;99.90;;;;;;4972316;28;20058;-68
2023/05/27 05:55:05;;;;;;;31.60;26.50;;;11.20;99.90;;;;;;4974229;28;20418;-70
2023/05/27 05:57:32;;;;;;;35.17;27.98;;;11.20;99.90;;;;;;4959359;28;20588;-69
2023/05/27 06:00:05;;;;;;;33.15;27.23;;;11.40;99.90;;;;;;4977884;28;20349;-68
2023/05/27 06:02:44;;;;;;;31.95;25.45;;;11.40;99.90;;;;;;4982727;28;20079;-70
2023/05/27 06:05:22;;;;;;;35.58;27.50;;;11.40;99.90;;;;;;4966733;28;20549;-68
2023/05/27 06:07:48;;;;;;;37.38;27.00;;;11.50;99.90;;;;;;4969203;28;20532;-69
2023/05/27 06:10:16;;;;;;;30.35;27.23;;;11.90;99.90;;;;;;4973899;28;20400;-69
2023/05/27 06:12:43;;;;;;;38.08;27.85;;;11.90;99.90;;;;;;4969073;28;20487;-70
2023/05/27 06:15:10;;;;;;;33.95;29.67;;;12.00;99.90;;;;;;4947977;28;20713;-70
2023/05/27 06:17:41;;;;;;;41.00;31.63;;;12.00;99.90;;;;;;4984989;28;20545;-69
2023/05/27 06:20:08;;;;;;;32.35;29.35;;;12.30;99.90;;;;;;4963304;28;20047;-68
2023/05/27 06:22:36;;;;;;;37.05;30.45;;;12.50;99.90;;;;;;4964566;28;20105;-68
2023/05/27 06:25:23;;;;;;;34.03;30.85;;;12.80;99.90;;;;;;4964991;28;20123;-70
2023/05/27 06:27:56;;;;;;;32.90;29.73;;;13.00;99.90;;;;;;4963482;28;21474;-69
2023/05/27 06:30:23;;;;;;;34.50;29.67;;;12.90;99.90;;;;;;4952666;28;20050;-69
2023/05/27 06:32:51;;;;;;;35.67;30.83;;;13.20;99.90;;;;;;4957706;28;20410;-69
2023/05/27 06:35:19;;;;;;;37.80;31.92;;;13.00;99.90;;;;;;4967615;28;20038;-69
2023/05/27 06:37:46;;;;;;;34.70;30.83;;;12.90;99.90;;;;;;4966337;28;20042;-71
2023/05/27 06:40:14;;;;;;;33.38;29.75;;;12.90;99.90;;;;;;4968197;28;20651;-72
2023/05/27 06:42:43;;;;;;;34.92;31.80;;;13.00;99.90;;;;;;4955396;28;20066;-71
2023/05/27 06:45:31;;;;;;;34.05;30.73;;;13.00;99.90;;;;;;4954782;28;20137;-70
2023/05/27 06:48:11;;;;;;;34.10;30.23;;;12.90;99.90;;;;;;4966801;28;20034;-70
2023/05/27 06:50:38;;;;;;;34.35;31.00;;;13.30;99.90;;;;;;4972013;28;20536;-69
2023/05/27 06:53:05;;;;;;;34.25;31.02;;;13.50;99.90;;;;;;4966617;28;21182;-70
2023/05/27 06:55:47;;;;;;;34.40;30.23;;;13.90;99.90;;;;;;4967575;28;20445;-71
2023/05/27 06:58:49;;;;;;;34.70;31.38;;;13.90;99.90;;;;;;4967700;28;20135;-70
2023/05/27 07:01:18;;;;;;;34.38;31.58;;;13.80;99.90;;;;;;4964642;28;20050;-71
2023/05/27 07:04:05;;;;;;;34.05;31.25;;;14.10;99.90;;;;;;4966681;28;20610;-72
2023/05/27 07:07:07;;;;;;;34.63;31.48;;;14.30;99.90;;;;;;4913454;28;20425;-74
2023/05/27 07:09:34;;;;;;;34.22;31.35;;;14.30;99.90;;;;;;4965486;28;20529;-73
2023/05/27 07:12:02;;;;;;;33.35;30.58;;;14.30;99.90;;;;;;4961068;28;20050;-72
2023/05/27 07:14:48;;;;;;;33.47;30.67;;;14.40;99.90;;;;;;4961167;28;20038;-72
2023/05/27 07:17:15;;;;;;;35.33;32.05;;;14.60;99.90;;;;;;4971066;28;20035;-73
2023/05/27 07:19:43;;;;;;;35.03;31.83;;;14.40;99.90;;;;;;4968466;28;20050;-71
2023/05/27 07:22:14;;;;;;;36.00;32.45;;;14.70;99.90;;;;;;4969385;28;20305;-72
2023/05/27 07:24:41;;;;;;;35.38;31.92;;;15.00;99.90;;;;;;4969731;28;20404;-74
2023/05/27 07:27:08;;;;;;;37.25;33.50;;;15.00;99.90;;;;;;4991486;28;20074;-72
2023/05/27 07:29:39;;;;;;;36.47;33.40;;;14.90;99.90;;;;;;4983879;28;20085;-72
2023/05/27 07:32:22;;;;;;;38.00;34.25;;;15.10;99.90;;;;;;4971891;28;20499;-70
2023/05/27 07:34:48;;;;;;;37.78;34.72;;;15.20;99.90;;;;;;4971253;28;20129;-70
2023/05/27 07:37:15;;;;;;;38.60;35.35;;;15.50;99.90;;;;;;4974382;28;20069;-72
2023/05/27 07:39:42;;;;;;;35.85;32.78;;;15.20;99.90;;;;;;4972301;28;20267;-73
2023/05/27 07:42:12;;;;;;;39.65;34.75;;;15.70;99.90;;;;;;4980588;28;20044;-72
2023/05/27 07:44:39;;;;;;;39.30;35.67;;;15.80;99.90;;;;;;4966545;28;20050;-72
2023/05/27 07:47:06;;;;;;;37.83;34.75;;;14.90;99.90;;;;;;4975478;28;20039;-73
2023/05/27 07:49:33;;;;;;;38.13;35.13;;;14.80;99.90;;;;;;4976938;28;20151;-70
2023/05/27 07:52:31;;;;;;;40.65;35.42;;;15.00;99.90;;;;;;4987771;28;20137;-72
2023/05/27 07:55:02;;;;;;;39.92;35.50;;;14.70;99.90;;;;;;4984700;28;20038;-71
2023/05/27 07:57:29;;;;;;;38.63;35.65;;;14.60;99.90;;;;;;4975504;28;20133;-71
2023/05/27 07:59:56;;;;;;;38.20;34.85;;;14.50;99.90;;;;;;4971505;28;20072;-73
2023/05/27 08:02:31;;;;;;;38.80;35.25;;;14.60;99.90;;;;;;4967186;28;20510;-73
2023/05/27 08:05:00;;;;;;;37.60;34.72;;;14.70;99.90;;;;;;4971563;28;20050;-75
2023/05/27 08:07:57;;;;;;;37.58;34.47;;;14.60;99.90;;;;;;4972098;28;20057;-74
2023/05/27 08:10:44;;;;;;;38.30;35.25;;;14.80;99.90;;;;;;4990716;23;20475;-74
2023/05/27 08:13:46;;;;;;;39.22;36.13;;;15.10;99.90;;;;;;4922878;28;20074;-77
2023/05/27 08:16:31;;;;;;;37.90;34.20;;;14.60;99.90;;;;;;4950351;28;20050;-75
2023/05/27 08:19:14;;;;;;;37.22;34.35;;;15.10;99.90;;;;;;4952665;28;20101;-77
2023/05/27 08:21:49;;;;;;;37.67;34.13;;;15.20;99.90;;;;;;4958620;28;20137;-75
2023/05/27 08:24:35;;;;;;;;;;;15.70;99.90;;;;;;4958935;28;20580;-74
2023/05/27 08:27:17;;;;;;;36.05;32.95;;;16.20;99.90;;;;;;4957128;28;19956;-75
2023/05/27 08:30:05;;;;;;;39.28;35.80;;;16.90;99.90;;;;;;4952667;28;20057;-76
2023/05/27 08:33:07;;;;;;;37.03;33.55;;;16.30;99.90;;;;;;4864631;29;20294;-74
2023/05/27 08:35:35;;;;;;;38.70;35.33;;;15.70;99.90;;;;;;4907402;28;22083;-74
2023/05/27 08:38:03;;;;;;;38.63;35.42;;;16.20;99.90;;;;;;4940221;28;21009;-75
2023/05/27 08:40:34;;;;;;;38.13;35.08;;;16.10;99.90;;;;;;4922262;28;20046;-75
2023/05/27 08:43:02;;;;;;;37.05;33.70;;;16.50;99.90;;;;;;4933534;28;20051;-75
2023/05/27 08:45:31;;;;;;;37.78;34.13;;;17.10;99.90;;;;;;4927104;28;20069;-74
2023/05/27 08:47:58;;;;;;;38.03;34.80;;;17.50;99.90;;;;;;4921319;28;20808;-74
2023/05/27 08:50:32;;;;;;;39.28;35.75;;;17.70;99.90;;;;;;4945031;28;20210;-75
2023/05/27 08:53:00;;;;;;;38.55;35.38;;;16.50;99.90;;;;;;4923275;28;20057;-75
2023/05/27 08:55:29;;;;;;;36.95;34.22;;;16.50;99.90;;;;;;4925366;28;20368;-74
2023/05/27 08:57:57;;;;;;;38.22;35.15;;;17.00;99.90;;;;;;4917843;28;20137;-73
2023/05/27 09:00:26;;;;;;;40.42;36.90;;;16.80;99.90;;;;;;4934894;28;20129;-75
2023/05/27 09:02:59;;;;;;;39.55;35.97;;;15.70;99.90;;;;;;4937761;28;20537;-75
2023/05/27 09:05:30;;;;;;;37.65;34.25;;;15.70;99.90;;;;;;4936560;28;20054;-75
2023/05/27 09:07:57;;;;;;;40.30;36.80;;;16.20;99.90;;;;;;4953709;28;20042;-76
2023/05/27 09:10:38;;;;;;;38.80;35.67;;;16.20;99.90;;;;;;4945193;28;20057;-75
2023/05/27 09:13:06;;;;;;;38.35;35.30;;;15.50;99.90;;;;;;4953581;28;21080;-73
2023/05/27 09:15:34;;;;;;;39.78;36.65;;;15.50;99.90;;;;;;4943634;28;20072;-76
2023/05/27 09:18:02;;;;;;;41.90;38.40;;;15.50;99.90;;;;;;4941085;28;20317;-73
2023/05/27 09:20:30;;;;;;;39.97;36.97;;;15.60;99.90;;;;;;4937344;28;20101;-73
2023/05/27 09:23:01;;;;;;;39.25;35.42;;;15.40;99.90;;;;;;4940946;28;20070;-74
2023/05/27 09:25:29;;;;;;;39.17;35.50;;;15.60;99.90;;;;;;4949296;28;20479;-73
2023/05/27 09:27:56;;;;;;;37.10;34.22;;;16.10;99.90;;;;;;4939334;28;20446;-73
2023/05/27 09:30:25;;;;;;;38.63;35.40;;;16.40;99.90;;;;;;4944337;28;20099;-76
2023/05/27 09:33:00;;;;;;;39.38;35.60;;;16.50;99.90;;;;;;4942024;28;20043;-79
2023/05/27 09:35:27;;;;;;;39.63;36.40;;;16.60;99.90;;;;;;4943566;28;20092;-74
2023/05/27 09:37:54;;;;;;;38.80;35.22;;;16.90;99.90;;;;;;4927367;28;20475;-73
2023/05/27 09:40:20;;;;;;;39.03;35.85;;;16.00;99.90;;;;;;4939105;28;20391;-74
2023/05/27 09:42:48;;;;;;;38.08;34.83;;;15.70;99.90;;;;;;4945203;28;20050;-73
2023/05/27 09:45:17;;;;;;;39.63;36.22;;;16.80;99.90;;;;;;4942419;28;22310;-73
2023/05/27 09:47:52;;;;;;;37.67;34.47;;;17.20;99.90;;;;;;4967866;28;20054;-73
2023/05/27 09:50:20;;;;;;;38.28;35.55;;;17.50;99.90;;;;;;4953490;28;20042;-74
2023/05/27 09:52:48;;;;;;;37.85;34.92;;;17.10;99.90;;;;;;4952904;28;20047;-74
2023/05/27 09:55:32;;;;;;;37.07;34.30;;;17.10;99.90;;;;;;4951093;28;20136;-73
2023/05/27 09:58:00;;;;;;;40.20;36.92;;;17.40;99.90;;;;;;4958298;28;20113;-72
2023/05/27 10:00:29;;;;;;;41.97;38.08;;;17.80;99.90;;;;;;4950608;28;20082;-71
2023/05/27 10:02:59;;;;;;;39.42;36.15;;;17.50;99.90;;;;;;4950828;28;20377;-73
2023/05/27 10:05:27;;;;;;;41.33;38.03;;;17.30;99.90;;;;;;4952677;28;20173;-74
2023/05/27 10:07:54;;;;;;;38.63;35.92;;;17.10;99.90;;;;;;4951955;28;20607;-74
2023/05/27 10:10:41;;;;;;;39.53;36.70;;;17.70;99.90;;;;;;4952420;28;22132;-73
2023/05/27 10:13:08;;;;;;;40.88;37.65;;;17.30;99.90;;;;;;4954275;28;20046;-73
2023/05/27 10:15:35;;;;;;;39.30;36.28;;;17.10;99.90;;;;;;4964903;28;20070;-72
2023/05/27 10:18:07;;;;;;;40.03;37.00;;;17.10;99.90;;;;;;4952814;28;20198;-73
2023/05/27 10:20:42;;;;;;;38.40;35.53;;;18.10;99.90;;;;;;4958126;28;20089;-74
2023/05/27 10:23:15;;;;;;;41.50;38.42;;;18.60;99.90;;;;;;4948866;28;21360;-73
2023/05/27 10:25:50;;;;;;;42.83;39.08;;;18.80;99.90;;;;;;4958450;28;20534;-72
2023/05/27 10:28:39;;;;;;;40.58;37.65;;;18.30;99.90;;;;;;4949667;28;20435;-73
2023/05/27 10:31:05;;;;;;;40.78;37.60;;;17.70;99.90;;;;;;4956019;28;20190;-72
2023/05/27 10:33:42;;;;;;;41.05;37.83;;;17.80;99.90;;;;;;4960214;28;20546;-74
2023/05/27 10:36:10;;;;;;;42.15;38.85;;;18.00;99.90;;;;;;4959847;28;20051;-74
2023/05/27 10:38:38;;;;;;;42.15;39.25;;;18.30;99.90;;;;;;4953619;28;20113;-74
2023/05/27 10:41:06;;;;;;;42.15;39.00;;;17.80;99.90;;;;;;4950239;28;20046;-73
2023/05/27 10:43:34;;;;;;;41.95;39.05;;;17.70;99.90;;;;;;4954717;28;20057;-72
2023/05/27 10:46:22;;;;;;;41.95;39.03;;;17.90;99.90;;;;;;4949141;28;20042;-73
2023/05/27 10:48:49;;;;;;;41.45;38.42;;;17.70;99.90;;;;;;4955148;28;20045;-73
2023/05/27 10:51:16;;;;;;;42.35;39.15;;;17.80;99.90;;;;;;4949622;28;20049;-75
2023/05/27 10:53:43;;;;;;;43.97;40.88;;;18.50;99.90;;;;;;4946262;28;21289;-73
2023/05/27 10:56:10;;;;;;;43.65;40.83;;;18.80;99.90;;;;;;4946625;28;20038;-73
2023/05/27 10:58:38;;;;;;;43.20;40.42;;;17.90;99.90;;;;;;4932084;28;20063;-73
2023/05/27 11:01:13;;;;;;;45.58;41.72;;;17.80;99.90;;;;;;4946588;28;20070;-73
2023/05/27 11:03:44;;;;;;;44.85;41.67;;;18.10;99.90;;;;;;4944695;28;20602;-72
2023/05/27 11:06:16;;;;;;;44.03;40.72;;;18.20;99.90;;;;;;4929855;28;20622;-73
2023/05/27 11:08:43;;;;;;;44.30;41.47;;;18.10;99.90;;;;;;4937567;28;20185;-73
2023/05/27 11:11:11;;;;;;;43.50;40.47;;;18.40;99.90;;;;;;4952010;28;20544;-72
2023/05/27 11:13:42;;;;;;;43.03;40.00;;;18.60;99.90;;;;;;4954512;28;20062;-72
2023/05/27 11:16:14;;;;;;;43.38;40.30;;;19.10;99.90;;;;;;4926054;28;20042;-73
2023/05/27 11:18:42;;;;;;;44.40;41.05;;;19.20;99.90;;;;;;4943731;28;20247;-74
2023/05/27 11:21:11;;;;;;;42.97;39.70;;;18.70;99.90;;;;;;4946041;28;20038;-73
2023/05/27 11:23:40;;;;;;;42.53;39.38;;;18.90;99.90;;;;;;4952802;28;20316;-73
2023/05/27 11:26:21;;;;;;;45.03;42.13;;;18.80;99.90;;;;;;4956455;28;20039;-72
2023/05/27 11:28:53;;;;;;;45.55;41.95;;;18.90;99.90;;;;;;4956041;28;20062;-76
2023/05/27 11:31:26;;;;;;;44.42;41.28;;;19.10;99.90;;;;;;4949385;28;20103;-73
2023/05/27 11:33:52;;;;;;;44.35;41.28;;;19.80;99.90;;;;;;4955964;28;20038;-73
2023/05/27 11:36:23;;;;;;;44.45;41.45;;;19.40;99.90;;;;;;4957638;28;20046;-74
2023/05/27 11:38:58;;;;;;;46.22;43.03;;;19.30;99.90;;;;;;4953181;28;20065;-74
2023/05/27 11:41:27;;;;;;;46.95;43.38;;;19.40;99.90;;;;;;4949395;28;20042;-73
2023/05/27 11:44:04;;;;;;;46.33;43.03;;;19.30;99.90;;;;;;4953510;28;20108;-76
2023/05/27 11:46:35;;;;;;;45.65;42.65;;;19.50;99.90;;;;;;4954828;28;20140;-73
2023/05/27 11:49:07;;;;;;;45.65;42.58;;;19.90;99.90;;;;;;4950078;28;20126;-76
2023/05/27 11:51:37;;;;;;;43.28;40.50;;;20.30;99.90;;;;;;4951500;28;20051;-73
2023/05/27 11:54:04;;;;;;;45.90;42.60;;;20.30;99.90;;;;;;4955410;28;20291;-71
2023/05/27 11:56:31;;;;;;;44.30;41.13;;;19.80;99.90;;;;;;4945275;28;20043;-72
2023/05/27 11:58:59;;;;;;;45.90;42.67;;;19.30;99.90;;;;;;4953440;28;20161;-75
2023/05/27 12:01:26;;;;;;;44.25;40.95;;;19.80;99.90;;;;;;4960145;28;20291;-74
2023/05/27 12:03:53;;;;;;;44.28;41.15;;;20.10;99.90;;;;;;4956484;28;20046;-72
2023/05/27 12:06:20;;;;;;;42.45;39.50;;;19.80;99.90;;;;;;4952315;28;20034;-73
2023/05/27 12:08:47;;;;;;;48.42;45.42;;;18.90;99.90;;;;;;4968160;28;21063;-73
2023/05/27 12:11:14;;;;;;;51.47;48.35;;;18.90;99.90;;;;;;4954206;28;21158;-75
2023/05/27 12:13:41;;;;;;;51.22;47.92;;;19.10;99.90;;;;;;4950513;28;20038;-77
2023/05/27 12:16:08;;;;;;;51.20;47.40;;;19.70;99.90;;;;;;4946725;28;20046;-75
2023/05/27 12:18:35;;;;;;;51.28;47.88;;;19.70;99.90;;;;;;4951567;28;20051;-74
2023/05/27 12:21:02;;;;;;;53.38;50.00;;;19.70;99.90;;;;;;4956217;28;20411;-73
2023/05/27 12:23:29;;;;;;;51.88;48.72;;;19.70;99.90;;;;;;4949371;28;20141;-72
2023/05/27 12:25:56;;;;;;;50.90;47.53;;;20.20;99.90;;;;;;4949328;28;20051;-77
2023/05/27 12:28:23;;;;;;;52.65;49.70;;;20.20;99.90;;;;;;4959716;28;20217;-74
2023/05/27 12:30:49;;;;;;;51.22;47.85;;;20.40;99.90;;;;;;4956026;28;20556;-74
2023/05/27 12:33:16;;;;;;;49.92;46.55;;;20.20;99.90;;;;;;4942320;28;20554;-74
2023/05/27 12:35:43;;;;;;;50.40;47.10;;;20.40;99.90;;;;;;4955278;28;20042;-74
2023/05/27 12:38:10;;;;;;;49.83;46.33;;;20.80;99.90;;;;;;4948781;28;20582;-74
2023/05/27 12:40:37;;;;;;;46.42;43.13;;;20.50;99.90;;;;;;4956685;28;20237;-74
2023/05/27 12:43:03;;;;;;;44.83;42.05;;;20.30;99.90;;;;;;4936323;28;20772;-74
2023/05/27 12:45:31;;;;;;;45.90;42.67;;;20.00;99.90;;;;;;4956015;28;20054;-77